Weather History for Sleetmute, AK

Change the Weather History Date:

Tuesday, October 8, 2013

  Actual Average Record
Temperature  
Mean Temperature 42 °F -  
Max Temperature 48 °F 37 °F 48 °F (2003)
Min Temperature 37 °F 25 °F 8 °F (2000)
Degree Days  
Heating Degree Days 22    
Moisture  
Dew Point 37 °F    
Average Humidity 80    
Maximum Humidity 93    
Minimum Humidity 62    
Precipitation  
Precipitation 0.18 in - - ()
Sea Level Pressure  
Sea Level Pressure 29.05 in    
Wind  
Wind Speed 10 mph (South)    
Max Wind Speed 21 mph    
Max Gust Speed 33 mph    
Visibility 10 miles    
Events      
Averages and records for this station are not official NWS values.
T = Trace of Precipitation, MM = Missing Value Source: NWS Daily Summary

Daily Weather History Graph

Daily Weather History Graph

Search for Another Location

Airport:

Trip Planner

Search our weather history database for the weather conditions in past years. The results will help you decide how hot, cold, wet, or windy it might be!

Date:

Astronomy

Oct. 08, 2013 Rise Set
Actual Time 8:54 AM AKDT 7:35 PM AKDT
Civil Twilight 8:10 AM AKDT 8:19 PM AKDT
Nautical Twilight 7:19 AM AKDT 9:10 PM AKDT
Astronomical Twilight 6:27 AM AKDT 10:02 PM AKDT
Moon 2:13 PM AKDT (10/8) 9:08 PM AKDT (10/8)
Length of Visible Light 12h 08m
Length of Day
10h 40m
Waxing Crescent, 17% of the Moon is Illuminated
Oct 8
Waxing Crescent
Oct 11
First Quarter
Oct 18
Full
Oct 26
Last Quarter
Nov 3
New

Hourly Weather History & Observations

Time (AKDT) Temp. Windchill Dew Point Humidity Pressure Visibility Wind Dir Wind Speed Gust Speed Precip Events Conditions
12:56 AM 42.8 °F 38.0 °F 39.2 °F 87% 29.19 in 10.0 mi SE 8.1 mph - 0.03 in   Overcast
1:16 AM 42.8 °F 38.6 °F 39.2 °F 87% 29.15 in 10.0 mi SE 6.9 mph - 0.02 in   Overcast
1:36 AM 42.8 °F 38.0 °F 39.2 °F 87% 29.14 in 10.0 mi SSE 8.1 mph - 0.06 in   Overcast
1:56 AM 42.8 °F 39.3 °F 39.2 °F 87% 29.13 in 10.0 mi SSE 5.8 mph - 0.10 in   Mostly Cloudy
2:16 AM 42.8 °F 40.1 °F 39.2 °F 87% 29.11 in 5.0 mi SE 4.6 mph - 0.04 in   Overcast
2:36 AM 42.8 °F 38.6 °F 39.2 °F 87% 29.09 in 7.0 mi SE 6.9 mph - 0.05 in   Overcast
3:16 AM 42.8 °F 37.5 °F 41.0 °F 93% 29.04 in 9.0 mi SE 9.2 mph - N/A   Overcast
3:36 AM 42.8 °F 36.6 °F 41.0 °F 93% 29.01 in 10.0 mi SE 11.5 mph 19.6 mph N/A   Overcast
3:56 AM 44.6 °F 38.1 °F 42.8 °F 93% 28.99 in 10.0 mi SSE 13.8 mph 25.3 mph N/A   Overcast
4:16 AM 44.6 °F 38.1 °F 42.8 °F 93% 28.99 in 10.0 mi SSE 13.8 mph 21.9 mph N/A   Overcast
4:36 AM 46.4 °F 40.4 °F 42.8 °F 87% 28.97 in 10.0 mi SSE 13.8 mph 21.9 mph N/A   Overcast
4:56 AM 46.4 °F 38.7 °F 44.6 °F 93% 28.96 in 10.0 mi SSE 20.7 mph 33.4 mph N/A   Overcast
5:16 AM 48.2 °F - 44.6 °F 87% 28.95 in 8.0 mi SSE 17.3 mph 31.1 mph N/A   Overcast
5:36 AM 48.2 °F - 44.6 °F 87% 28.93 in 10.0 mi SE 17.3 mph 29.9 mph N/A   Overcast
5:56 AM 48.2 °F - 44.6 °F 87% 28.93 in 10.0 mi SSE 19.6 mph 32.2 mph N/A   Overcast
6:16 AM 48.2 °F - 44.6 °F 87% 28.96 in 10.0 mi South 15.0 mph 28.8 mph N/A   Overcast
6:36 AM 48.2 °F - 42.8 °F 82% 28.97 in 10.0 mi South 11.5 mph 20.7 mph N/A   Overcast
6:56 AM 48.2 °F - 41.0 °F 76% 28.98 in 10.0 mi South 11.5 mph 28.8 mph N/A   Overcast
7:16 AM 46.4 °F 41.1 °F 41.0 °F 81% 28.98 in 10.0 mi SSE 11.5 mph 21.9 mph N/A   Overcast
7:56 AM 46.4 °F 41.9 °F 41.0 °F 81% 28.99 in 10.0 mi South 9.2 mph - N/A   Overcast
8:16 AM 46.4 °F 41.9 °F 39.2 °F 76% 28.99 in 10.0 mi South 9.2 mph - N/A   Overcast
8:36 AM 46.4 °F 41.5 °F 39.2 °F 76% 29.00 in 10.0 mi South 10.4 mph 16.1 mph N/A   Overcast
8:56 AM 44.6 °F 39.7 °F 39.2 °F 81% 29.00 in 10.0 mi South 9.2 mph 17.3 mph N/A   Overcast
9:36 AM 44.6 °F 40.2 °F 37.4 °F 76% 29.01 in 10.0 mi South 8.1 mph - N/A   Overcast
9:56 AM 44.6 °F 40.2 °F 37.4 °F 76% 29.02 in 10.0 mi South 8.1 mph 18.4 mph N/A   Mostly Cloudy
10:16 AM 44.6 °F 42.2 °F 37.4 °F 76% 29.03 in 10.0 mi South 4.6 mph - N/A   Overcast
10:36 AM 44.6 °F 38.8 °F 37.4 °F 76% 29.03 in 10.0 mi South 11.5 mph 18.4 mph N/A   Overcast
10:56 AM 44.6 °F 39.2 °F 37.4 °F 76% 29.02 in 10.0 mi South 10.4 mph 17.3 mph N/A   Mostly Cloudy
11:36 AM 44.6 °F 37.8 °F 37.4 °F 76% 29.02 in 10.0 mi SSE 15.0 mph 20.7 mph N/A   Mostly Cloudy
11:56 AM 44.6 °F 38.8 °F 37.4 °F 76% 29.02 in 10.0 mi South 11.5 mph 21.9 mph N/A   Mostly Cloudy
12:16 PM 46.4 °F 40.1 °F 37.4 °F 71% 29.02 in 10.0 mi SSE 15.0 mph 23.0 mph N/A   Mostly Cloudy
12:36 PM 46.4 °F 41.1 °F 35.6 °F 66% 29.02 in 10.0 mi South 11.5 mph 24.2 mph N/A   Scattered Clouds
12:56 PM 44.6 °F 39.7 °F 35.6 °F 71% 29.03 in 10.0 mi SSE 9.2 mph 20.7 mph N/A   Scattered Clouds
1:16 PM 44.6 °F 40.7 °F 35.6 °F 71% 29.03 in 10.0 mi South 6.9 mph 25.3 mph N/A   Overcast
1:36 PM 46.4 °F 40.1 °F 35.6 °F 66% 29.02 in 10.0 mi SSE 15.0 mph 26.5 mph N/A   Overcast
1:56 PM 48.2 °F - 35.6 °F 62% 29.01 in 10.0 mi South 12.7 mph 27.6 mph N/A   Mostly Cloudy
2:16 PM 46.4 °F 41.5 °F 35.6 °F 66% 29.00 in 10.0 mi South 10.4 mph 20.7 mph N/A   Overcast
2:36 PM 46.4 °F 41.9 °F 35.6 °F 66% 29.00 in 10.0 mi South 9.2 mph 19.6 mph N/A   Overcast
3:36 PM 46.4 °F 42.9 °F 33.8 °F 62% 29.00 in 10.0 mi South 6.9 mph 18.4 mph N/A   Overcast
3:56 PM 46.4 °F 41.5 °F 35.6 °F 66% 29.00 in 10.0 mi South 10.4 mph 20.7 mph N/A   Overcast
4:16 PM 44.6 °F 40.2 °F 35.6 °F 71% 29.00 in 10.0 mi South 8.1 mph 17.3 mph N/A   Overcast
4:36 PM 44.6 °F 38.8 °F 37.4 °F 76% 29.00 in 9.0 mi South 11.5 mph 16.1 mph N/A   Overcast
4:56 PM 44.6 °F 40.2 °F 37.4 °F 76% 29.01 in 10.0 mi South 8.1 mph - N/A   Overcast
5:16 PM 42.8 °F 40.1 °F 37.4 °F 81% 29.01 in 10.0 mi South 4.6 mph - N/A   Mostly Cloudy
5:36 PM 42.8 °F 39.3 °F 37.4 °F 81% 29.01 in 10.0 mi SSE 5.8 mph - N/A   Mostly Cloudy
5:56 PM 42.8 °F 39.3 °F 37.4 °F 81% 29.02 in 10.0 mi South 5.8 mph - N/A   Mostly Cloudy
6:36 PM 42.8 °F 39.3 °F 33.8 °F 70% 29.04 in 10.0 mi SW 5.8 mph - N/A   Overcast
6:56 PM 42.8 °F 39.3 °F 33.8 °F 70% 29.04 in 10.0 mi SW 5.8 mph - N/A   Mostly Cloudy
7:16 PM 41.0 °F 36.4 °F 33.8 °F 76% 29.05 in 10.0 mi SW 6.9 mph - N/A   Mostly Cloudy
7:36 PM 41.0 °F 35.8 °F 33.8 °F 76% 29.06 in 10.0 mi SSW 8.1 mph - N/A   Overcast
7:56 PM 39.2 °F 32.5 °F 33.8 °F 81% 29.07 in 10.0 mi SSW 10.4 mph - N/A   Overcast
8:16 PM 39.2 °F 34.2 °F 33.8 °F 81% 29.09 in 10.0 mi SSW 6.9 mph - N/A   Overcast
8:36 PM 39.2 °F 32.5 °F 33.8 °F 81% 29.10 in 10.0 mi SW 10.4 mph - N/A   Overcast
8:56 PM 37.4 °F 32.8 °F 32.0 °F 81% 29.10 in 10.0 mi SW 5.8 mph 16.1 mph N/A   Overcast
9:16 PM 37.4 °F 33.8 °F 33.8 °F 87% 29.12 in 10.0 mi SW 4.6 mph - N/A   Overcast
9:36 PM 37.4 °F 29.8 °F 33.8 °F 87% 29.13 in 10.0 mi WSW 11.5 mph 21.9 mph N/A   Overcast
9:56 PM 37.4 °F 28.2 °F 33.8 °F 87% 29.14 in 10.0 mi SW 16.1 mph 21.9 mph N/A   Overcast
10:16 PM 37.4 °F 31.4 °F 33.8 °F 87% 29.15 in 10.0 mi WSW 8.1 mph 16.1 mph N/A   Overcast
10:36 PM 37.4 °F 30.8 °F 33.8 °F 87% 29.17 in 10.0 mi WSW 9.2 mph 25.3 mph N/A   Overcast
10:56 PM 37.4 °F 31.4 °F 32.0 °F 81% 29.18 in 10.0 mi WSW 8.1 mph 18.4 mph N/A   Mostly Cloudy
11:16 PM 37.4 °F 30.8 °F 32.0 °F 81% 29.19 in 10.0 mi WSW 9.2 mph 17.3 mph N/A   Overcast
11:36 PM 37.4 °F 31.4 °F 32.0 °F 81% 29.21 in 10.0 mi WSW 8.1 mph 19.6 mph N/A   Mostly Cloudy
11:56 PM 37.4 °F 32.8 °F 32.0 °F 81% 29.22 in 10.0 mi WSW 5.8 mph 16.1 mph N/A   Mostly Cloudy